createdAt,value
2018-02-13T00:01:11.380Z,-0.40
2018-02-13T00:06:14.046Z,-0.40
2018-02-13T00:11:17.595Z,-0.40
2018-02-13T00:16:20.844Z,-0.40
2018-02-13T00:21:23.475Z,-0.40
2018-02-13T00:26:26.150Z,-0.40
2018-02-13T00:31:28.770Z,-0.30
2018-02-13T00:36:31.405Z,-0.30
2018-02-13T00:41:34.862Z,-0.40
2018-02-13T00:46:37.722Z,-0.40
2018-02-13T00:51:40.441Z,-0.40
2018-02-13T00:56:43.626Z,-0.40
2018-02-13T01:01:47.023Z,-0.60
2018-02-13T01:06:50.542Z,-0.60
2018-02-13T01:11:53.260Z,-0.60
2018-02-13T01:16:56.315Z,-0.60
2018-02-13T01:21:59.082Z,-0.80
2018-02-13T01:27:02.546Z,-0.80
2018-02-13T01:32:05.202Z,-0.90
2018-02-13T01:37:08.782Z,-0.80
2018-02-13T01:42:11.511Z,-0.70
2018-02-13T01:47:15.345Z,-0.80
2018-02-13T01:52:17.971Z,-0.80
2018-02-13T03:27:53.722Z,-0.80
2018-02-13T03:32:57.298Z,-0.30
2018-02-13T03:38:01.091Z,-0.30
2018-02-13T03:43:04.249Z,-0.30
2018-02-13T03:48:06.871Z,-0.40
2018-02-13T03:53:10.340Z,-0.50
2018-02-13T03:58:13.749Z,-0.70
2018-02-13T04:03:16.609Z,-0.70
2018-02-13T04:08:19.198Z,-0.80
2018-02-13T04:13:22.464Z,-0.80
2018-02-13T04:18:25.908Z,-0.80
2018-02-13T04:23:28.968Z,-0.80
2018-02-13T04:28:31.555Z,-0.80
2018-02-13T04:33:35.016Z,-0.90
2018-02-13T04:38:38.449Z,-1.00
2018-02-13T04:43:41.423Z,-1.00
2018-02-13T04:48:44.032Z,-1.10
2018-02-13T04:53:47.486Z,-1.10
2018-02-13T04:58:50.107Z,-1.10
2018-02-13T05:03:53.674Z,-1.00
2018-02-13T05:08:57.035Z,-1.10
2018-02-13T05:13:59.815Z,-1.10
2018-02-13T05:19:02.414Z,-1.00
2018-02-13T05:24:05.176Z,-1.00
2018-02-13T05:29:07.781Z,-1.10
2018-02-13T05:34:11.419Z,-1.20
2018-02-13T05:39:14.818Z,-1.30
2018-02-13T05:44:17.499Z,-1.30
2018-02-13T05:49:20.839Z,-1.30
2018-02-13T05:54:24.494Z,-1.20
2018-02-13T05:59:28.316Z,-1.30
2018-02-13T06:04:31.715Z,-1.30
2018-02-13T06:09:35.075Z,-1.30
2018-02-13T06:14:37.734Z,-1.30
2018-02-13T06:19:43.854Z,-1.10
2018-02-13T06:24:47.744Z,-1.10
2018-02-13T06:29:51.144Z,-0.90
2018-02-13T06:34:57.869Z,-0.90
2018-02-13T06:40:00.453Z,-0.90
2018-02-13T06:45:04.673Z,-0.80
2018-02-13T06:50:07.339Z,-0.90
2018-02-13T06:55:10.781Z,-0.90
2018-02-13T07:00:13.405Z,-0.90
2018-02-13T07:05:17.305Z,-0.90
2018-02-13T07:10:20.704Z,-0.90
2018-02-13T07:15:23.379Z,-0.90
2018-02-13T07:20:25.975Z,-0.90
2018-02-13T07:25:29.543Z,-0.80
2018-02-13T07:30:32.175Z,-0.70
2018-02-13T07:35:34.842Z,-0.70
2018-02-13T07:40:37.491Z,-0.60
2018-02-13T07:45:40.503Z,-0.50
2018-02-13T07:50:43.145Z,-0.40
2018-02-13T07:55:45.990Z,-0.40
2018-02-13T08:00:48.624Z,-0.30
2018-02-13T08:05:52.198Z,-0.30
2018-02-13T08:10:54.845Z,-0.20
2018-02-13T08:15:57.931Z,-0.10
2018-02-13T08:21:00.591Z,0.00
2018-02-13T08:26:04.787Z,0.30
2018-02-13T08:31:07.547Z,0.20
2018-02-13T08:36:10.724Z,0.40
2018-02-13T08:41:13.361Z,0.60
2018-02-13T08:46:16.839Z,0.80
2018-02-13T08:51:19.474Z,1.00
2018-02-13T08:56:22.254Z,1.10
2018-02-13T09:01:25.669Z,1.00
2018-02-13T09:06:29.205Z,1.20
2018-02-13T09:11:32.599Z,1.50
2018-02-13T09:16:35.201Z,1.50
2018-02-13T09:21:37.815Z,1.60
2018-02-13T09:26:42.059Z,2.60
2018-02-13T09:31:44.677Z,2.60
2018-02-13T09:36:48.266Z,3.70
2018-02-13T09:41:51.666Z,4.20
2018-02-13T09:46:55.241Z,4.20
2018-02-13T09:51:57.888Z,4.30
2018-02-13T09:57:01.093Z,4.30
2018-02-13T10:02:03.685Z,4.30
2018-02-13T10:07:06.657Z,5.00
2018-02-13T10:12:09.278Z,5.50
2018-02-13T10:17:12.159Z,5.80
2018-02-13T10:22:14.822Z,6.60
2018-02-13T10:27:18.751Z,7.60
2018-02-13T10:32:22.151Z,7.10
2018-02-13T10:37:24.950Z,7.10
2018-02-13T10:42:27.544Z,7.50
2018-02-13T10:47:30.921Z,6.80
2018-02-13T10:52:33.541Z,8.10
2018-02-13T10:57:36.713Z,8.60
2018-02-13T11:02:39.347Z,8.60
2018-02-13T11:07:42.929Z,8.90
2018-02-13T11:12:45.576Z,8.80
2018-02-13T11:17:49.251Z,8.80
2018-02-13T11:22:51.886Z,8.50
2018-02-13T11:27:55.179Z,8.70
2018-02-13T11:32:57.798Z,9.00
2018-02-13T11:38:00.469Z,7.20
2018-02-13T11:43:03.080Z,8.40
2018-02-13T11:48:06.635Z,9.60
2018-02-13T11:53:09.277Z,9.30
2018-02-13T11:58:12.692Z,9.90
2018-02-13T12:03:16.107Z,9.90
2018-02-13T12:08:19.749Z,10.60
2018-02-13T12:13:22.361Z,10.60
2018-02-13T12:18:25.844Z,11.40
2018-02-13T12:23:29.241Z,11.70
2018-02-13T12:28:34.194Z,11.80
2018-02-13T12:33:36.798Z,11.80
2018-02-13T12:38:41.370Z,11.10
2018-02-13T12:43:43.998Z,11.00
2018-02-13T12:48:48.714Z,12.10
2018-02-13T12:53:51.359Z,12.10
2018-02-13T12:58:54.442Z,12.50
2018-02-13T13:04:13.760Z,10.40
2018-02-13T13:09:16.989Z,8.50
2018-02-13T13:14:19.586Z,9.10
2018-02-13T13:19:22.961Z,11.90
2018-02-13T13:24:25.587Z,11.10
2018-02-13T13:29:28.398Z,12.80
2018-02-13T13:34:31.048Z,11.50
2018-02-13T13:39:34.534Z,11.50
2018-02-13T13:44:37.936Z,7.70
2018-02-13T13:49:40.751Z,7.70
2018-02-13T13:54:43.369Z,7.60
2018-02-13T13:59:46.887Z,6.50
2018-02-13T14:04:50.274Z,6.60
2018-02-13T14:09:53.735Z,6.60
2018-02-13T14:14:57.256Z,5.70
2018-02-13T14:20:00.736Z,5.80
2018-02-13T14:25:03.338Z,6.20
2018-02-13T14:30:06.573Z,7.80
2018-02-13T14:35:09.963Z,8.70
2018-02-13T14:40:12.977Z,8.70
2018-02-13T14:45:15.596Z,7.00
2018-02-13T14:50:19.530Z,5.70
2018-02-13T14:55:22.160Z,5.70
2018-02-13T15:00:25.524Z,5.40
2018-02-13T15:05:28.134Z,4.80
2018-02-13T15:10:32.486Z,4.60
2018-02-13T15:15:35.117Z,4.50
2018-02-13T15:20:38.386Z,4.20
2018-02-13T15:25:41.779Z,4.10
2018-02-13T15:30:44.554Z,4.10
2018-02-13T15:35:47.190Z,4.10
2018-02-13T15:40:51.202Z,3.80
2018-02-13T15:45:54.596Z,3.60
2018-02-13T15:50:57.279Z,3.60
2018-02-13T15:55:59.900Z,3.50
2018-02-13T16:01:03.151Z,3.20
2018-02-13T16:06:06.504Z,2.70
2018-02-13T16:11:09.493Z,2.60
2018-02-13T16:16:12.126Z,2.40
2018-02-13T16:21:15.612Z,2.20
2018-02-13T16:26:18.209Z,2.10
2018-02-13T16:31:21.710Z,1.80
2018-02-13T16:36:25.113Z,1.40
2018-02-13T16:41:27.832Z,1.40
2018-02-13T16:46:31.255Z,1.10
2018-02-13T16:51:35.318Z,0.80
2018-02-13T16:56:37.950Z,0.80
2018-02-13T17:01:41.044Z,0.70
2018-02-13T17:06:43.883Z,0.70
2018-02-13T17:11:48.339Z,0.50
2018-02-13T17:16:51.093Z,0.50
2018-02-13T17:21:53.963Z,0.50
2018-02-13T17:26:56.589Z,0.40
2018-02-13T17:32:00.069Z,0.40
2018-02-13T17:37:02.968Z,0.90
2018-02-13T17:42:06.085Z,1.00
2018-02-13T17:47:08.706Z,0.40
2018-02-13T17:52:11.689Z,0.20
2018-02-13T17:57:14.799Z,0.10
2018-02-13T18:02:17.605Z,0.00
2018-02-13T18:07:20.608Z,0.00
2018-02-13T18:12:23.348Z,-0.20
2018-02-13T18:17:26.547Z,-0.30
2018-02-13T18:22:29.862Z,-0.40
2018-02-13T18:27:32.972Z,-0.40
2018-02-13T18:32:36.473Z,-0.40
2018-02-13T18:37:39.121Z,-0.50
2018-02-13T18:42:42.994Z,-0.60
2018-02-13T18:47:45.795Z,-0.60
2018-02-13T18:57:52.198Z,-0.60
2018-02-13T19:02:56.283Z,-0.60
2018-02-13T19:07:58.919Z,-0.60
2018-02-13T19:13:02.233Z,-0.80
2018-02-13T19:18:04.995Z,-0.80
2018-02-13T19:23:08.672Z,-0.70
2018-02-13T19:28:12.208Z,-1.00
2018-02-13T19:33:15.726Z,-1.00
2018-02-13T19:38:18.504Z,-1.10
2018-02-13T19:43:21.230Z,-1.10
2018-02-13T19:48:23.875Z,-1.30
2018-02-13T19:53:26.637Z,-1.40
2018-02-13T19:58:29.636Z,-1.20
2018-02-13T20:03:32.594Z,-1.30
2018-02-13T20:08:35.259Z,-1.30
2018-02-13T20:13:44.819Z,-1.40
2018-02-13T20:18:47.500Z,-1.40
2018-02-13T20:23:50.909Z,-1.40
2018-02-13T20:28:54.324Z,-1.30
2018-02-13T20:33:58.151Z,-1.60
2018-02-13T20:39:01.568Z,-1.50
2018-02-13T20:44:05.498Z,-1.40
2018-02-13T20:49:08.934Z,-1.50
2018-02-13T20:54:11.995Z,-1.50
2018-02-13T20:59:14.642Z,-1.50
2018-02-13T21:04:17.543Z,-1.50
2018-02-13T21:09:20.958Z,-1.70
2018-02-13T21:14:24.698Z,-1.80
2018-02-13T21:19:27.371Z,-1.80
2018-02-13T21:24:31.701Z,-1.90
2018-02-13T21:29:34.373Z,-1.90
2018-02-13T21:34:37.947Z,-2.10
2018-02-13T21:39:40.600Z,-2.00
2018-02-13T21:44:44.302Z,-2.20
2018-02-13T21:49:47.094Z,-2.10
2018-02-13T21:54:49.901Z,-2.10
2018-02-13T21:59:52.528Z,-2.10
2018-02-13T22:04:55.785Z,-2.10
2018-02-13T22:09:59.082Z,-2.20
2018-02-13T22:15:03.534Z,-2.20
2018-02-13T22:20:06.343Z,-2.20
2018-02-13T22:25:09.706Z,-2.20
2018-02-13T22:30:12.512Z,-2.20
2018-02-13T22:35:15.555Z,-2.30
2018-02-13T22:40:18.961Z,-2.40
2018-02-13T22:45:22.623Z,-2.40
2018-02-13T22:50:25.344Z,-2.30
2018-02-13T22:55:28.577Z,-2.40
2018-02-13T23:00:31.236Z,-2.50
2018-02-13T23:05:34.740Z,-2.40
2018-02-13T23:10:38.261Z,-2.60
2018-02-13T23:15:41.879Z,-2.60
2018-02-13T23:20:44.530Z,-2.60
2018-02-13T23:25:48.113Z,-2.60
2018-02-13T23:30:51.625Z,-2.60
2018-02-13T23:35:55.137Z,-2.60
2018-02-13T23:40:57.790Z,-2.80
2018-02-13T23:46:00.839Z,-2.80
2018-02-13T23:51:04.413Z,-2.80
2018-02-13T23:56:07.889Z,-2.90
